Time;durP1;ratioP1;P1;durP2;ratioP2;P2;SDS_P1;SDS_P2;PMS_P1;PMS_P2;Temp;Humidity;BMP_temperature;BMP_pressure;BME280_temperature;BME280_humidity;BME280_pressure;Samples;Min_cycle;Max_cycle;Signal;HPM_P1;HPM_P2
2021/12/05 00:20:35;;;;;;;1.83;1.73;;;;;;;5.87;100.00;94994.03;5013545;28;20192;-48
2021/12/05 00:23:09;;;;;;;1.80;1.70;;;;;;;5.90;100.00;94975.44;5015634;28;20049;-46
2021/12/05 00:25:39;;;;;;;2.20;2.00;;;;;;;6.21;100.00;94994.16;5008581;28;20120;-48
2021/12/05 00:31:14;;;;;;;2.22;1.92;;;;;;;5.91;100.00;95001.41;5012401;28;20523;-44
2021/12/05 00:33:58;;;;;;;2.05;1.90;;;;;;;5.94;100.00;95014.22;5001553;28;20062;-50
2021/12/05 00:39:50;;;;;;;2.53;2.10;;;;;;;5.91;100.00;95018.91;4936010;28;20055;-46
2021/12/05 00:48:04;;;;;;;2.50;2.15;;;;;;;6.06;100.00;95029.72;5015289;28;20073;-47
2021/12/05 00:56:22;;;;;;;2.10;1.90;;;;;;;6.05;100.00;95031.47;5018767;28;20127;-43
2021/12/05 01:04:59;;;;;;;2.33;2.13;;;;;;;6.02;100.00;95039.66;4993731;28;20073;-46
2021/12/05 01:07:52;;;;;;;4.28;2.25;;;;;;;6.02;100.00;95039.66;5012127;28;20077;-47
2021/12/05 01:10:35;;;;;;;2.33;2.13;;;;;;;6.07;100.00;95049.66;5012219;28;20100;-44
2021/12/05 01:13:28;;;;;;;2.95;1.90;;;;;;;6.00;100.00;95049.44;5007502;28;20076;-47
2021/12/05 01:15:59;;;;;;;2.20;2.00;;;;;;;6.06;100.00;95058.50;5009017;28;20064;-46
2021/12/05 01:18:28;;;;;;;3.28;2.30;;;;;;;5.80;100.00;95064.44;5012090;28;20061;-46
2021/12/05 01:21:04;;;;;;;2.17;2.00;;;;;;;5.72;100.00;95062.59;5020044;28;20061;-47
2021/12/05 01:23:38;;;;;;;2.15;1.95;;;;;;;5.90;100.00;95062.56;5013752;28;20080;-49
2021/12/05 01:26:10;;;;;;;4.55;2.05;;;;;;;5.87;100.00;95057.63;5022031;28;20192;-46
2021/12/05 01:28:57;;;;;;;2.58;2.08;;;;;;;5.83;100.00;95069.38;5011485;28;20136;-47
2021/12/05 01:31:33;;;;;;;4.80;2.45;;;;;;;5.79;100.00;95075.88;5017811;28;20069;-48
2021/12/05 01:34:14;;;;;;;2.40;2.05;;;;;;;5.78;100.00;95083.88;5011041;28;20389;-48
2021/12/05 01:36:55;;;;;;;2.72;2.00;;;;;;;5.70;100.00;95082.00;5016519;28;20057;-45
2021/12/05 01:39:36;;;;;;;2.38;2.17;;;;;;;5.87;100.00;95089.03;5015797;28;20464;-45
2021/12/05 01:42:48;;;;;;;3.85;2.08;;;;;;;5.83;100.00;95085.06;5023228;28;20072;-46
2021/12/05 01:45:50;;;;;;;3.65;2.20;;;;;;;6.00;100.00;95090.50;5017641;28;20077;-46
2021/12/05 01:51:47;;;;;;;2.80;2.17;;;;;;;5.67;100.00;95087.53;5013198;28;20076;-49
2021/12/05 01:57:26;;;;;;;2.13;1.92;;;;;;;5.41;100.00;95083.03;5022331;28;20821;-47
2021/12/05 02:11:23;;;;;;;1.80;1.70;;;;;;;5.29;100.00;95092.00;5016336;28;20457;-49
2021/12/05 02:29:21;;;;;;;6.60;2.45;;;;;;;5.45;100.00;95094.81;5020598;28;21529;-45
2021/12/05 02:33:49;;;;;;;2.47;2.05;;;;;;;5.39;100.00;95084.13;5018381;28;20073;-46
2021/12/05 02:39:27;;;;;;;4.38;2.00;;;;;;;5.48;100.00;95084.06;5017148;28;20069;-48
2021/12/05 02:41:57;;;;;;;7.25;2.25;;;;;;;5.70;100.00;95093.28;5018205;28;20065;-46
2021/12/05 02:44:25;;;;;;;4.05;2.20;;;;;;;6.20;100.00;95094.59;5018186;28;20452;-49
2021/12/05 02:47:00;;;;;;;6.75;2.25;;;;;;;5.87;100.00;95098.66;5022500;28;20076;-47
2021/12/05 02:49:31;;;;;;;2.75;2.40;;;;;;;5.75;100.00;95099.84;5010830;28;20080;-48
2021/12/05 02:52:03;;;;;;;3.85;2.30;;;;;;;6.27;100.00;95103.47;5015691;28;20092;-48
2021/12/05 02:54:38;;;;;;;3.50;2.20;;;;;;;5.93;100.00;95106.78;5013742;28;20069;-46
2021/12/05 02:57:08;;;;;;;2.20;2.00;;;;;;;5.90;100.00;95107.03;5014625;28;20061;-46
2021/12/05 02:59:44;;;;;;;3.27;2.30;;;;;;;5.68;100.00;95110.09;5013605;28;20053;-48
2021/12/05 03:02:17;;;;;;;2.13;1.92;;;;;;;5.44;100.00;95103.66;5012137;28;20493;-43
2021/12/05 03:04:47;;;;;;;2.83;2.10;;;;;;;5.57;100.00;95110.28;5020745;28;20092;-44
2021/12/05 03:07:20;;;;;;;2.20;2.10;;;;;;;5.46;100.00;95106.91;5017227;28;20080;-45
2021/12/05 03:09:50;;;;;;;5.15;2.10;;;;;;;5.14;100.00;95109.97;5016177;28;20049;-44
2021/12/05 03:12:19;;;;;;;2.47;2.27;;;;;;;5.36;100.00;95113.16;5013134;28;20068;-47
2021/12/05 03:14:49;;;;;;;2.10;2.00;;;;;;;4.90;100.00;95104.44;5021217;28;20494;-46
2021/12/05 03:17:18;;;;;;;2.47;2.00;;;;;;;4.92;100.00;95108.56;5015791;28;20093;-46
2021/12/05 03:19:46;;;;;;;3.17;2.20;;;;;;;4.89;100.00;95114.06;5017446;28;20096;-46
2021/12/05 03:22:15;;;;;;;2.10;1.90;;;;;;;4.86;100.00;95114.34;5011483;28;20073;-51
2021/12/05 03:24:44;;;;;;;2.53;2.38;;;;;;;4.90;100.00;95123.53;5011231;28;20062;-48
2021/12/05 03:27:14;;;;;;;2.63;2.13;;;;;;;5.04;100.00;95126.66;5011387;28;20061;-51
2021/12/05 03:29:43;;;;;;;7.53;2.00;;;;;;;5.06;100.00;95119.50;5015876;28;20776;-51
2021/12/05 03:32:11;;;;;;;2.22;2.03;;;;;;;5.16;100.00;95131.56;5019715;28;20077;-46
2021/12/05 03:34:40;;;;;;;3.28;1.95;;;;;;;4.98;100.00;95133.28;5019772;28;20083;-45
2021/12/05 03:37:09;;;;;;;4.28;2.00;;;;;;;4.98;100.00;95128.88;5011802;28;20190;-48
2021/12/05 03:39:38;;;;;;;2.00;1.90;;;;;;;5.15;100.00;95129.91;5014300;28;20065;-51
2021/12/05 03:42:07;;;;;;;3.15;2.15;;;;;;;5.46;100.00;95114.75;5018795;28;20088;-47
2021/12/05 03:44:39;;;;;;;3.20;2.00;;;;;;;5.11;100.00;95125.13;5015100;28;20098;-53
2021/12/05 03:47:09;;;;;;;4.03;2.10;;;;;;;5.10;100.00;95126.09;5011699;28;20085;-47
2021/12/05 03:49:38;;;;;;;2.30;2.10;;;;;;;5.10;100.00;95131.31;5016109;28;20069;-50
2021/12/05 03:52:08;;;;;;;2.55;1.95;;;;;;;5.05;100.00;95126.50;5013519;28;20072;-49
2021/12/05 03:54:37;;;;;;;2.22;2.03;;;;;;;5.18;100.00;95134.03;5013451;28;20065;-52
2021/12/05 03:57:06;;;;;;;2.10;1.85;;;;;;;4.99;100.00;95134.94;5010090;28;20410;-46
2021/12/05 03:59:37;;;;;;;4.03;2.35;;;;;;;4.82;100.00;95128.66;5011859;28;20080;-52
2021/12/05 04:02:07;;;;;;;2.63;2.17;;;;;;;4.92;100.00;95128.63;5015938;28;20081;-50
2021/12/05 04:04:36;;;;;;;2.88;2.05;;;;;;;4.90;100.00;95131.38;5012811;28;20053;-49
2021/12/05 04:07:05;;;;;;;2.80;2.20;;;;;;;4.60;100.00;95131.59;5014598;28;20107;-48
2021/12/05 04:09:34;;;;;;;3.95;2.25;;;;;;;4.58;100.00;95138.75;5012522;28;20062;-51
2021/12/05 04:12:04;;;;;;;2.83;2.10;;;;;;;4.72;100.00;95128.69;5009931;28;20069;-51
2021/12/05 04:14:35;;;;;;;3.72;2.53;;;;;;;4.60;100.00;95131.59;5014707;28;20050;-46
2021/12/05 04:17:07;;;;;;;2.38;2.17;;;;;;;4.69;100.00;95120.31;5018731;28;20104;-50
2021/12/05 04:19:37;;;;;;;2.38;2.10;;;;;;;4.60;100.00;95118.56;5020153;28;20065;-48
2021/12/05 04:22:07;;;;;;;2.73;2.53;;;;;;;4.85;100.00;95133.63;5008013;28;20065;-48
2021/12/05 04:24:36;;;;;;;2.63;2.35;;;;;;;4.76;100.00;95118.78;5012345;28;20487;-52
2021/12/05 04:27:05;;;;;;;4.05;2.00;;;;;;;4.74;100.00;95123.31;5016038;28;20073;-46
2021/12/05 04:29:34;;;;;;;2.20;2.00;;;;;;;4.51;100.00;95123.66;5019591;28;20130;-52
2021/12/05 04:32:02;;;;;;;2.60;2.00;;;;;;;4.35;100.00;95127.81;5021618;28;20092;-50
2021/12/05 04:34:33;;;;;;;2.40;2.20;;;;;;;4.76;100.00;95118.78;5013297;28;20088;-48
2021/12/05 04:37:01;;;;;;;;;;;;;;;4.64;100.00;95117.28;5010913;28;20051;-45
2021/12/05 04:39:31;;;;;;;2.22;2.00;;;;;;;4.76;100.00;95121.41;5007238;28;19967;-49
2021/12/05 04:41:59;;;;;;;2.50;2.00;;;;;;;4.98;100.00;95118.41;5012792;28;20148;-48
2021/12/05 04:44:28;;;;;;;4.00;2.28;;;;;;;4.49;100.00;95116.94;5013529;28;20502;-48
2021/12/05 04:47:00;;;;;;;3.83;2.30;;;;;;;4.86;100.00;95113.53;5018212;28;20096;-51
2021/12/05 04:49:29;;;;;;;3.58;2.50;;;;;;;4.79;100.00;95118.50;5012875;28;20077;-51
2021/12/05 04:51:59;;;;;;;3.47;2.20;;;;;;;4.56;100.00;95112.78;5008804;28;20543;-47
2021/12/05 04:54:27;;;;;;;4.47;2.50;;;;;;;4.67;100.00;95106.56;5011272;28;20061;-48
2021/12/05 04:56:55;;;;;;;4.30;2.13;;;;;;;4.66;100.00;95110.97;5010950;28;20061;-50
2021/12/05 04:59:26;;;;;;;2.28;2.10;;;;;;;4.74;100.00;95102.44;5028496;28;20081;-50
2021/12/05 05:01:57;;;;;;;2.70;2.47;;;;;;;4.56;100.00;95094.50;5020262;28;20078;-49
2021/12/05 05:04:27;;;;;;;4.53;2.13;;;;;;;4.48;100.00;95097.03;5019808;28;20105;-51
2021/12/05 05:06:59;;;;;;;5.78;2.25;;;;;;;4.16;100.00;95107.75;5021888;28;20065;-50
2021/12/05 05:09:28;;;;;;;2.83;2.15;;;;;;;4.45;100.00;95098.13;5015357;28;20069;-48
2021/12/05 05:11:57;;;;;;;2.55;2.13;;;;;;;4.66;100.00;95103.16;5021256;28;20062;-49
2021/12/05 05:14:26;;;;;;;4.07;2.35;;;;;;;4.68;100.00;95096.00;5017563;28;20073;-49
2021/12/05 05:16:55;;;;;;;3.50;2.28;;;;;;;4.46;100.00;95102.38;5018391;28;20088;-49
2021/12/05 05:19:28;;;;;;;4.85;2.28;;;;;;;4.43;100.00;95113.06;5016880;28;20085;-46
2021/12/05 05:22:05;;;;;;;2.55;2.20;;;;;;;4.56;100.00;95106.75;5015443;28;20058;-45
2021/12/05 05:46:55;;;;;;;4.88;2.78;;;;;;;4.22;100.00;95104.59;5017909;28;20053;-49
2021/12/05 05:49:32;;;;;;;3.92;2.40;;;;;;;4.37;100.00;95104.97;5017739;28;20073;-49
2021/12/05 05:52:01;;;;;;;3.42;2.33;;;;;;;4.50;100.00;95100.28;5018661;28;20080;-46
2021/12/05 05:54:30;;;;;;;4.82;2.40;;;;;;;4.20;100.00;95115.19;5018634;28;20124;-45
2021/12/05 05:57:07;;;;;;;4.60;2.70;;;;;;;4.13;100.00;95111.50;5013123;28;20077;-46
2021/12/05 05:59:43;;;;;;;3.67;2.42;;;;;;;3.99;100.00;95117.09;5015997;28;20621;-46
2021/12/05 06:05:12;;;;;;;;;;;;;;;4.23;100.00;95116.69;4950977;28;21585;-47
2021/12/05 06:07:44;;;;;;;3.58;2.42;;;;;;;4.05;100.00;95121.78;4941788;28;20093;-50
2021/12/05 06:10:16;;;;;;;5.75;2.97;;;;;;;4.31;100.00;95113.41;4973993;28;20042;-46
2021/12/05 06:12:44;;;;;;;5.93;2.38;;;;;;;4.37;100.00;95113.66;5020008;28;20042;-53
2021/12/05 06:15:15;;;;;;;6.75;2.97;;;;;;;4.13;100.00;95105.41;5014719;28;20506;-48
2021/12/05 06:17:44;;;;;;;3.65;2.67;;;;;;;4.03;100.00;95106.28;5009033;28;20042;-46
2021/12/05 06:20:15;;;;;;;3.72;2.72;;;;;;;4.10;100.00;95110.94;5016615;28;20409;-47
2021/12/05 06:22:44;;;;;;;4.63;2.40;;;;;;;4.06;100.00;95115.63;5022530;28;20827;-51
2021/12/05 06:25:20;;;;;;;5.63;2.75;;;;;;;3.84;100.00;95121.09;5016640;28;20103;-46
2021/12/05 06:27:49;;;;;;;4.15;2.60;;;;;;;4.16;100.00;95115.59;5014191;28;20048;-46
2021/12/05 06:30:28;;;;;;;5.45;2.75;;;;;;;4.22;100.00;95125.47;5019773;28;20041;-52
2021/12/05 06:38:43;;;;;;;4.05;2.80;;;;;;;4.27;100.00;95136.34;5014049;28;20064;-46
2021/12/05 06:41:21;;;;;;;5.53;3.03;;;;;;;4.27;100.00;95144.16;5018537;28;20056;-50
2021/12/05 06:46:37;;;;;;;3.75;2.60;;;;;;;4.18;100.00;95143.19;5014479;28;20042;-48
2021/12/05 06:49:06;;;;;;;3.92;2.90;;;;;;;4.20;100.00;95146.50;4999419;28;20048;-50
2021/12/05 06:51:34;;;;;;;3.92;2.70;;;;;;;4.26;100.00;95147.72;4997454;28;20034;-44
2021/12/05 06:54:03;;;;;;;5.78;2.70;;;;;;;4.77;100.00;95138.69;4993154;28;20412;-45
2021/12/05 06:56:33;;;;;;;5.65;2.88;;;;;;;4.61;100.00;95141.91;5001080;28;20049;-45
2021/12/05 06:59:02;;;;;;;4.50;2.75;;;;;;;4.39;100.00;95147.44;5023178;28;20052;-48
2021/12/05 07:01:31;;;;;;;6.32;2.83;;;;;;;4.45;100.00;95150.31;5013174;28;20567;-47
2021/12/05 07:04:06;;;;;;;2.83;2.63;;;;;;;4.64;100.00;95151.25;4997014;28;20042;-49
2021/12/05 07:06:35;;;;;;;3.75;2.88;;;;;;;4.65;100.00;95145.88;4997655;28;21836;-49
2021/12/05 07:09:07;;;;;;;4.63;2.80;;;;;;;4.89;100.00;95145.41;5003169;28;20045;-48
2021/12/05 07:11:46;;;;;;;3.78;2.80;;;;;;;4.73;100.00;95139.97;5017302;28;20038;-46
2021/12/05 07:17:02;;;;;;;6.35;2.80;;;;;;;4.61;100.00;95149.75;5018379;28;20071;-44
2021/12/05 07:19:42;;;;;;;6.65;2.90;;;;;;;4.49;100.00;95156.06;5021188;28;20049;-47
2021/12/05 07:22:19;;;;;;;3.85;2.80;;;;;;;4.80;100.00;95148.88;5009379;28;20072;-49
2021/12/05 07:24:51;;;;;;;5.70;2.80;;;;;;;4.62;100.00;95155.78;5008247;28;20048;-51
2021/12/05 07:41:51;;;;;;;4.85;2.50;;;;;;;5.27;100.00;95140.19;4978763;28;20035;-48
2021/12/05 07:44:21;;;;;;;4.60;2.58;;;;;;;5.11;100.00;95151.25;4994231;28;20057;-45
2021/12/05 07:46:50;;;;;;;5.38;2.88;;;;;;;5.48;100.00;95146.00;5014296;28;20072;-46
2021/12/05 07:49:20;;;;;;;4.65;2.88;;;;;;;5.31;100.00;95146.78;5018230;28;20543;-50
2021/12/05 07:51:49;;;;;;;3.08;2.78;;;;;;;5.48;100.00;95144.22;5009864;28;20044;-47
2021/12/05 07:54:30;;;;;;;7.07;2.80;;;;;;;5.18;100.00;95142.69;5014412;28;20072;-51
2021/12/05 07:57:09;;;;;;;5.43;2.88;;;;;;;5.42;100.00;95138.72;5016959;28;20045;-52
2021/12/05 07:59:54;;;;;;;4.53;2.63;;;;;;;5.48;100.00;95125.91;5016929;28;20431;-51
2021/12/05 08:16:31;;;;;;;4.93;2.60;;;;;;;5.83;100.00;95136.56;4992542;28;20048;-53
2021/12/05 08:19:00;;;;;;;6.65;2.55;;;;;;;5.82;100.00;95137.56;5012516;28;20063;-51
2021/12/05 08:21:29;;;;;;;4.53;2.50;;;;;;;6.01;100.00;95139.22;5009375;28;20698;-51
2021/12/05 08:23:57;;;;;;;4.80;2.70;;;;;;;6.50;100.00;95144.88;5012888;28;20041;-47
2021/12/05 08:26:32;;;;;;;5.80;2.40;;;;;;;5.92;100.00;95136.53;5012550;28;20050;-51
2021/12/05 08:29:07;;;;;;;5.10;3.00;;;;;;;6.42;100.00;95137.78;5013065;28;20065;-45
2021/12/05 08:31:59;;;;;;;3.78;2.70;;;;;;;6.35;100.00;95140.19;5012654;28;20049;-50
2021/12/05 08:34:48;;;;;;;3.88;2.65;;;;;;;6.21;100.00;95139.91;5014811;28;20053;-47
2021/12/05 08:37:47;;;;;;;4.00;2.70;;;;;;;6.71;100.00;95139.28;5013290;28;20614;-50
2021/12/05 08:40:40;;;;;;;3.55;2.58;;;;;;;6.90;100.00;95137.31;5017068;28;20041;-50
2021/12/05 09:25:18;;;;;;;15.40;8.43;;;;;;;8.18;100.00;95158.28;5051371;27;20623;-49
2021/12/05 09:28:05;;;;;;;19.88;10.23;;;;;;;8.48;100.00;95159.50;5035093;28;20045;-52
2021/12/05 09:30:55;;;;;;;10.98;6.20;;;;;;;8.66;100.00;95156.69;5030217;28;20096;-46
2021/12/05 09:40:06;;;;;;;10.02;4.80;;;;;;;8.61;100.00;95159.84;5005772;28;20054;-48
2021/12/05 10:07:25;;;;;;;6.53;2.72;;;;;;;8.38;100.00;95145.69;5035789;28;20042;-49
2021/12/05 10:10:12;;;;;;;4.32;2.35;;;;;;;8.44;100.00;95142.44;5030593;28;20107;-48
2021/12/05 10:13:06;;;;;;;4.18;2.25;;;;;;;9.05;100.00;95133.19;5028137;28;20045;-51
2021/12/05 10:15:50;;;;;;;3.67;2.00;;;;;;;8.82;100.00;95146.19;5031392;28;20046;-48
2021/12/05 10:27:21;;;;;;;2.88;2.13;;;;;;;8.39;100.00;95142.09;5038865;28;20546;-48
2021/12/05 10:35:55;;;;;;;4.57;2.15;;;;;;;7.51;100.00;95132.84;5031453;28;20045;-51
2021/12/05 10:38:28;;;;;;;4.05;2.33;;;;;;;7.51;100.00;95134.66;5021010;28;20049;-47
2021/12/05 10:41:18;;;;;;;4.00;2.50;;;;;;;7.44;100.00;95123.16;5023734;28;21741;-51
2021/12/05 10:43:49;;;;;;;5.60;2.30;;;;;;;8.66;100.00;95118.09;5017211;28;20101;-48
2021/12/05 10:46:20;;;;;;;4.15;2.20;;;;;;;7.75;100.00;95119.00;5014984;28;20042;-49
2021/12/05 10:48:51;;;;;;;;;;;;;;;7.44;100.00;95118.72;5018545;28;20753;-47
2021/12/05 10:51:21;;;;;;;3.03;2.22;;;;;;;8.02;100.00;95117.09;5024939;28;20371;-52
2021/12/05 10:53:50;;;;;;;3.97;2.30;;;;;;;7.84;100.00;95118.03;5022939;28;20045;-50
2021/12/05 10:56:22;;;;;;;6.30;2.63;;;;;;;7.49;100.00;95128.75;5028724;28;20042;-48
2021/12/05 10:58:54;;;;;;;4.57;2.40;;;;;;;7.50;100.00;95130.38;5026302;28;20042;-49
2021/12/05 11:01:32;;;;;;;3.63;2.20;;;;;;;7.08;100.00;95131.19;5015034;28;20046;-51
2021/12/05 11:04:06;;;;;;;6.45;2.55;;;;;;;7.24;100.00;95119.97;5026525;28;20103;-49
2021/12/05 11:06:44;;;;;;;3.20;2.10;;;;;;;7.21;100.00;95131.56;5021527;28;20515;-50
2021/12/05 11:09:15;;;;;;;3.15;2.47;;;;;;;7.89;100.00;95135.09;5024136;28;20232;-52
2021/12/05 11:11:46;;;;;;;4.95;2.60;;;;;;;7.64;100.00;95137.66;5022019;28;20096;-52
2021/12/05 11:14:18;;;;;;;3.33;2.25;;;;;;;7.48;100.00;95134.97;5028125;28;20099;-49
2021/12/05 11:16:51;;;;;;;3.17;2.40;;;;;;;7.55;100.00;95135.97;5016288;28;20116;-48
2021/12/05 11:19:24;;;;;;;3.63;2.55;;;;;;;7.75;100.00;95140.00;5019620;28;20076;-47
2021/12/05 11:21:56;;;;;;;3.30;2.47;;;;;;;8.06;100.00;95137.59;5023238;28;20040;-45
2021/12/05 11:24:29;;;;;;;4.82;2.40;;;;;;;7.97;100.00;95132.47;5024308;28;20038;-46
2021/12/05 11:27:17;;;;;;;3.55;2.38;;;;;;;7.46;100.00;95129.06;5022194;28;20407;-53
2021/12/05 11:30:02;;;;;;;3.35;2.20;;;;;;;7.33;100.00;95135.56;5023962;28;20053;-48
2021/12/05 11:32:37;;;;;;;2.85;2.15;;;;;;;7.66;100.00;95140.94;5025477;28;20045;-48
2021/12/05 11:35:25;;;;;;;5.53;2.25;;;;;;;7.40;100.00;95140.16;5024222;28;20091;-51
2021/12/05 11:37:59;;;;;;;4.70;2.10;;;;;;;7.11;100.00;95125.63;5017638;28;20811;-48
2021/12/05 11:40:31;;;;;;;4.15;2.30;;;;;;;7.28;100.00;95135.22;5026658;28;20059;-49
2021/12/05 11:43:02;;;;;;;3.83;2.13;;;;;;;7.76;100.00;95135.56;5021704;28;20049;-49
2021/12/05 11:45:33;;;;;;;4.53;2.47;;;;;;;7.85;100.00;95137.22;5013215;28;20093;-48
2021/12/05 11:48:01;;;;;;;;;;;;;;;7.69;100.00;95135.38;5009600;28;20049;-48
2021/12/05 11:50:34;;;;;;;9.35;2.55;;;;;;;7.67;100.00;95147.00;5019921;28;19929;-52
2021/12/05 11:53:03;;;;;;;5.57;2.40;;;;;;;7.33;100.00;95138.19;5015303;28;20049;-48
2021/12/05 11:55:32;;;;;;;2.88;2.15;;;;;;;7.69;100.00;95142.44;5021713;28;20186;-50
2021/12/05 11:58:02;;;;;;;3.60;2.33;;;;;;;7.52;100.00;95136.28;5020015;28;20041;-46
2021/12/05 12:00:31;;;;;;;3.58;2.42;;;;;;;7.31;100.00;95132.28;5028840;28;20594;-51
2021/12/05 12:03:00;;;;;;;2.75;1.80;;;;;;;7.64;100.00;95131.56;5022993;28;20076;-46
2021/12/05 12:05:33;;;;;;;2.35;2.15;;;;;;;7.13;100.00;95127.13;5025696;28;20494;-47
2021/12/05 12:08:07;;;;;;;3.75;2.40;;;;;;;7.46;100.00;95132.50;5022570;28;20049;-46
2021/12/05 12:10:39;;;;;;;2.88;2.15;;;;;;;7.60;100.00;95124.03;5018228;28;20053;-49
2021/12/05 12:13:11;;;;;;;4.38;2.20;;;;;;;7.32;100.00;95125.22;5026274;28;20041;-46
2021/12/05 12:15:43;;;;;;;3.88;2.40;;;;;;;7.15;100.00;95126.94;5016501;28;20045;-48
2021/12/05 12:18:18;;;;;;;2.28;2.10;;;;;;;6.80;100.00;95122.66;5026861;28;20088;-48
2021/12/05 12:20:49;;;;;;;3.22;2.30;;;;;;;7.10;100.00;95122.19;5020578;28;20046;-49
2021/12/05 12:23:19;;;;;;;3.53;2.30;;;;;;;7.63;100.00;95122.06;5027137;28;20051;-48
2021/12/05 12:25:48;;;;;;;;;;;;;;;7.56;100.00;95125.31;5023764;28;20049;-49
2021/12/05 12:28:17;;;;;;;3.90;2.10;;;;;;;7.25;100.00;95118.97;5015461;28;19929;-45
2021/12/05 12:30:49;;;;;;;3.00;2.28;;;;;;;7.55;100.00;95121.06;5024759;28;20099;-45
2021/12/05 12:33:22;;;;;;;3.28;2.10;;;;;;;7.69;100.00;95124.88;5021357;28;20045;-46
2021/12/05 12:35:52;;;;;;;5.53;2.50;;;;;;;7.49;100.00;95118.25;5021989;28;20048;-49
2021/12/05 12:38:23;;;;;;;3.80;2.50;;;;;;;7.99;100.00;95117.41;5027153;28;20041;-49
2021/12/05 12:40:54;;;;;;;3.17;2.47;;;;;;;7.79;100.00;95120.31;5022796;28;20048;-44
2021/12/05 12:43:41;;;;;;;8.63;2.45;;;;;;;8.20;100.00;95124.81;5024536;28;20041;-47
2021/12/05 12:46:21;;;;;;;4.10;2.28;;;;;;;7.29;100.00;95123.72;5021229;28;20050;-48
2021/12/05 12:48:53;;;;;;;4.70;2.47;;;;;;;7.49;100.00;95131.38;5023500;28;20037;-51
2021/12/05 12:51:35;;;;;;;4.18;2.28;;;;;;;7.89;100.00;95124.59;5023784;28;20088;-48
2021/12/05 12:54:09;;;;;;;5.85;2.50;;;;;;;8.30;100.00;95123.66;5023912;28;20049;-48
2021/12/05 12:56:40;;;;;;;3.80;2.50;;;;;;;8.21;100.00;95123.81;5027057;28;20393;-47
2021/12/05 12:59:12;;;;;;;4.85;2.83;;;;;;;8.35;100.00;95119.72;5025788;28;20064;-47
2021/12/05 13:05:01;;;;;;;5.10;2.50;;;;;;;8.53;100.00;95118.63;5023689;28;20420;-51
2021/12/05 13:10:25;;;;;;;5.38;2.42;;;;;;;8.67;100.00;95118.91;5021423;28;20063;-43
2021/12/05 13:12:58;;;;;;;6.70;2.50;;;;;;;7.82;100.00;95120.00;5023868;28;20090;-45
2021/12/05 13:15:40;;;;;;;4.90;2.35;;;;;;;8.59;100.00;95124.19;5023832;28;20553;-45
2021/12/05 13:18:26;;;;;;;4.38;2.38;;;;;;;9.15;100.00;95114.56;5024255;28;20041;-50
2021/12/05 13:20:58;;;;;;;2.83;2.35;;;;;;;9.35;100.00;95107.91;5023339;28;20045;-44
2021/12/05 13:23:32;;;;;;;5.18;2.40;;;;;;;9.17;100.00;95116.03;5023283;28;20389;-45
2021/12/05 13:26:12;;;;;;;3.85;2.30;;;;;;;9.08;100.00;95111.78;5026354;28;20079;-49
2021/12/05 13:28:44;;;;;;;5.03;2.28;;;;;;;8.75;100.00;95113.69;5023648;28;20041;-48
2021/12/05 13:31:44;;;;;;;5.00;2.20;;;;;;;8.86;100.00;95112.50;5020180;28;20041;-48
2021/12/05 13:34:34;;;;;;;3.72;2.35;;;;;;;8.68;100.00;95121.41;4980869;28;20038;-46
2021/12/05 13:37:32;;;;;;;4.82;2.45;;;;;;;8.38;100.00;95122.06;5017808;28;20045;-48
2021/12/05 13:40:19;;;;;;;4.93;2.70;;;;;;;7.86;100.00;95131.00;5024953;28;20557;-47
2021/12/05 13:42:50;;;;;;;4.00;2.80;;;;;;;7.98;100.00;95121.84;5020457;28;20045;-51
2021/12/05 13:45:30;;;;;;;7.07;2.50;;;;;;;8.09;100.00;95126.78;5024680;28;20091;-50
2021/12/05 13:48:25;;;;;;;5.22;2.30;;;;;;;7.79;100.00;95130.81;5024896;28;20041;-49
2021/12/05 13:51:01;;;;;;;4.68;2.30;;;;;;;8.18;100.00;95130.22;5011529;28;20489;-51
2021/12/05 13:53:36;;;;;;;3.70;2.30;;;;;;;7.94;100.00;95133.63;5029089;28;20426;-45
2021/12/05 13:56:13;;;;;;;4.93;2.53;;;;;;;7.97;100.00;95137.72;5027376;28;20474;-50
2021/12/05 13:58:47;;;;;;;4.38;2.20;;;;;;;7.96;100.00;95141.34;5013675;28;20049;-46
2021/12/05 14:01:22;;;;;;;5.65;2.60;;;;;;;7.88;100.00;95133.44;5015985;28;20418;-48
2021/12/05 14:04:10;;;;;;;2.30;2.10;;;;;;;8.20;100.00;95130.88;5026269;28;20049;-47
2021/12/05 14:06:54;;;;;;;3.35;2.15;;;;;;;8.49;100.00;95140.94;5018429;28;20056;-48
2021/12/05 14:09:27;;;;;;;4.57;2.60;;;;;;;8.91;100.00;95131.22;5024482;28;20068;-47
2021/12/05 14:12:01;;;;;;;8.55;2.35;;;;;;;8.99;100.00;95139.09;5034192;28;20582;-50
2021/12/05 14:14:34;;;;;;;6.97;2.90;;;;;;;9.03;100.00;95127.25;5028407;28;20088;-50
2021/12/05 14:17:06;;;;;;;4.38;2.70;;;;;;;9.06;100.00;95131.38;5026976;28;20092;-48
2021/12/05 14:19:37;;;;;;;5.45;3.00;;;;;;;9.15;100.00;95141.69;5026775;28;20042;-45
2021/12/05 14:22:07;;;;;;;8.65;3.63;;;;;;;9.08;100.00;95145.16;5019717;28;20500;-49
2021/12/05 14:24:38;;;;;;;4.50;3.10;;;;;;;8.49;100.00;95143.56;5021430;28;20046;-50
2021/12/05 14:27:10;;;;;;;5.40;3.10;;;;;;;8.07;100.00;95138.41;5021031;28;20049;-45
2021/12/05 14:29:41;;;;;;;6.03;2.83;;;;;;;8.43;100.00;95136.34;5021456;28;20053;-50
2021/12/05 14:32:12;;;;;;;4.18;2.80;;;;;;;7.86;100.00;95144.13;5019000;28;20045;-46
2021/12/05 14:34:42;;;;;;;5.15;2.60;;;;;;;7.51;100.00;95145.97;5021728;28;20530;-46
2021/12/05 14:37:13;;;;;;;4.47;3.55;;;;;;;7.13;100.00;95144.66;5024842;28;20041;-48
2021/12/05 14:39:43;;;;;;;;;;;;;;;7.18;100.00;95154.66;5025093;28;20049;-49
2021/12/05 14:42:16;;;;;;;8.55;3.92;;;;;;;6.98;100.00;95154.88;5025134;28;19920;-48
2021/12/05 14:44:47;;;;;;;6.72;3.60;;;;;;;6.85;100.00;95157.09;5025471;28;21078;-46
2021/12/05 14:47:18;;;;;;;4.68;3.60;;;;;;;7.04;100.00;95161.31;5028376;28;20033;-49
2021/12/05 14:49:49;;;;;;;5.90;3.22;;;;;;;6.92;100.00;95157.28;5017671;28;20083;-46
2021/12/05 14:52:19;;;;;;;5.47;3.67;;;;;;;6.73;100.00;95163.56;5015485;28;20039;-50
2021/12/05 14:54:48;;;;;;;13.93;9.60;;;;;;;6.84;100.00;95163.28;5018284;28;20464;-48
2021/12/05 14:57:21;;;;;;;16.55;12.60;;;;;;;6.68;100.00;95164.03;5023539;28;20046;-47
2021/12/05 14:59:53;;;;;;;16.38;13.02;;;;;;;7.04;100.00;95169.97;5024503;28;20544;-49
2021/12/05 15:02:24;;;;;;;15.48;8.65;;;;;;;6.89;100.00;95172.34;5025586;28;20079;-44
2021/12/05 15:04:54;;;;;;;17.55;9.55;;;;;;;7.10;100.00;95172.00;5024015;28;21663;-45
2021/12/05 15:07:26;;;;;;;19.13;12.57;;;;;;;7.16;100.00;95167.09;5024997;28;20500;-45
2021/12/05 15:09:56;;;;;;;;;;;;;;;6.88;100.00;95170.72;5023373;28;20096;-46
2021/12/05 15:12:29;;;;;;;12.65;8.15;;;;;;;6.89;100.00;95172.34;5026987;28;19927;-50
2021/12/05 15:14:59;;;;;;;13.65;8.23;;;;;;;6.88;100.00;95181.19;5018116;28;20045;-48
2021/12/05 15:17:29;;;;;;;12.32;8.00;;;;;;;6.72;100.00;95178.44;5023227;28;20045;-51
2021/12/05 15:20:01;;;;;;;19.67;8.57;;;;;;;6.54;100.00;95188.13;5027351;28;20045;-46
2021/12/05 15:22:41;;;;;;;11.80;7.43;;;;;;;6.61;100.00;95194.41;5017390;28;20049;-45
2021/12/05 15:25:12;;;;;;;9.32;6.20;;;;;;;6.58;100.00;95194.72;5015593;28;20046;-51
2021/12/05 15:27:43;;;;;;;7.63;5.90;;;;;;;6.55;100.00;95193.22;5020445;28;20045;-49
2021/12/05 15:30:14;;;;;;;7.80;4.90;;;;;;;6.61;100.00;95203.09;5023220;28;20416;-45
2021/12/05 15:32:44;;;;;;;9.80;4.97;;;;;;;6.90;100.00;95204.63;5021426;28;20066;-49
2021/12/05 15:35:15;;;;;;;6.65;4.68;;;;;;;7.41;100.00;95207.41;5018814;28;20046;-48
2021/12/05 15:37:48;;;;;;;5.07;3.92;;;;;;;7.22;100.00;95201.38;5020081;28;20073;-48
2021/12/05 15:40:17;;;;;;;5.22;3.50;;;;;;;7.21;100.00;95202.34;5020287;28;20037;-48
2021/12/05 15:42:47;;;;;;;4.50;2.75;;;;;;;7.27;100.00;95209.63;5019884;28;20041;-52
2021/12/05 15:45:19;;;;;;;5.88;2.78;;;;;;;7.49;100.00;95207.44;5024730;28;20034;-50
2021/12/05 15:47:49;;;;;;;6.55;2.97;;;;;;;7.48;100.00;95206.59;5021071;28;20046;-46
2021/12/05 15:50:19;;;;;;;2.80;2.60;;;;;;;7.24;100.00;95209.91;5025031;28;20064;-48
2021/12/05 15:52:49;;;;;;;5.18;2.47;;;;;;;7.04;100.00;95208.47;5018523;28;20037;-48
2021/12/05 15:55:20;;;;;;;3.30;2.90;;;;;;;6.95;100.00;95217.25;5026265;28;20049;-48
2021/12/05 15:57:53;;;;;;;3.08;2.40;;;;;;;6.32;100.00;95215.59;5016439;28;20527;-50
2021/12/05 16:00:24;;;;;;;3.42;2.70;;;;;;;5.84;100.00;95219.28;5017837;28;20045;-50
2021/12/05 16:02:58;;;;;;;3.20;2.17;;;;;;;5.85;100.00;95223.53;5025542;28;20045;-47
2021/12/05 16:05:27;;;;;;;5.85;3.28;;;;;;;6.07;100.00;95225.81;5025736;28;20045;-49